createdAt,value
2022-12-07T00:01:42.670Z,22.37
2022-12-07T00:04:11.304Z,22.13
2022-12-07T00:06:39.435Z,22.97
2022-12-07T00:09:07.241Z,23.93
2022-12-07T00:11:34.542Z,21.77
2022-12-07T00:14:02.320Z,22.73
2022-12-07T00:16:30.862Z,25.43
2022-12-07T00:18:59.712Z,23.27
2022-12-07T00:21:27.632Z,23.40
2022-12-07T00:23:55.397Z,24.23
2022-12-07T00:26:23.485Z,24.20
2022-12-07T00:28:51.759Z,25.20
2022-12-07T00:31:19.957Z,26.63
2022-12-07T00:33:47.372Z,23.87
2022-12-07T00:36:16.787Z,23.67
2022-12-07T00:38:43.966Z,25.20
2022-12-07T00:41:12.438Z,25.03
2022-12-07T00:43:39.723Z,23.80
2022-12-07T00:46:06.852Z,25.77
2022-12-07T00:48:34.011Z,26.13
2022-12-07T00:51:01.477Z,26.43
2022-12-07T00:53:30.212Z,25.37
2022-12-07T00:55:57.309Z,27.27
2022-12-07T00:58:24.668Z,23.27
2022-12-07T01:00:51.807Z,24.50
2022-12-07T01:03:19.040Z,23.17
2022-12-07T01:05:52.879Z,24.83
2022-12-07T01:08:20.135Z,25.87
2022-12-07T01:10:49.086Z,23.00
2022-12-07T01:13:16.395Z,24.27
2022-12-07T01:15:44.389Z,25.20
2022-12-07T01:18:11.530Z,26.90
2022-12-07T01:20:38.689Z,22.67
2022-12-07T01:23:05.793Z,23.63
2022-12-07T01:25:32.886Z,25.10
2022-12-07T01:28:01.356Z,24.07
2022-12-07T01:30:28.490Z,25.03
2022-12-07T01:32:56.745Z,23.93
2022-12-07T01:35:23.840Z,22.37
2022-12-07T01:37:50.921Z,25.87
2022-12-07T01:40:18.038Z,23.47
2022-12-07T01:42:45.123Z,24.30
2022-12-07T01:45:45.565Z,24.60
2022-12-07T01:48:16.457Z,26.80
2022-12-07T01:50:44.716Z,26.00
2022-12-07T01:53:12.272Z,26.27
2022-12-07T01:55:41.830Z,22.60
2022-12-07T01:58:09.101Z,25.07
2022-12-07T02:00:36.284Z,26.73
2022-12-07T02:03:06.221Z,25.87
2022-12-07T02:05:35.357Z,25.63
2022-12-07T02:08:02.881Z,24.00
2022-12-07T02:10:31.301Z,23.77
2022-12-07T02:12:59.825Z,24.00
2022-12-07T02:15:28.973Z,27.70
2022-12-07T02:18:01.768Z,25.80
2022-12-07T02:20:31.630Z,27.27
2022-12-07T02:23:17.243Z,27.00
2022-12-07T02:25:56.627Z,26.50
2022-12-07T02:28:27.813Z,27.73
2022-12-07T02:30:57.402Z,25.53
2022-12-07T02:33:27.655Z,26.30
2022-12-07T02:35:58.368Z,27.63
2022-12-07T02:38:27.975Z,30.43
2022-12-07T02:40:55.927Z,29.00
2022-12-07T02:43:25.720Z,25.83
2022-12-07T02:45:53.749Z,26.60
2022-12-07T02:48:22.454Z,25.67
2022-12-07T02:50:50.388Z,28.50
2022-12-07T02:53:30.303Z,26.07
2022-12-07T02:55:57.470Z,24.63
2022-12-07T02:58:30.116Z,26.37
2022-12-07T03:01:04.819Z,26.00
2022-12-07T03:03:34.238Z,25.27
2022-12-07T03:06:06.080Z,23.57
2022-12-07T03:08:38.403Z,23.90
2022-12-07T03:11:06.826Z,24.30
2022-12-07T03:13:37.764Z,24.20
2022-12-07T03:16:10.197Z,23.97
2022-12-07T03:18:40.204Z,25.20
2022-12-07T03:21:10.148Z,23.70
2022-12-07T03:23:38.815Z,23.30
2022-12-07T03:26:06.309Z,23.67
2022-12-07T03:28:34.832Z,22.27
2022-12-07T03:31:04.400Z,22.20
2022-12-07T03:33:34.332Z,24.70
2022-12-07T03:36:06.327Z,22.50
2022-12-07T03:38:35.636Z,24.57
2022-12-07T03:41:07.473Z,22.50
2022-12-07T03:43:34.869Z,22.10
2022-12-07T03:46:03.777Z,24.60
2022-12-07T03:48:34.935Z,21.30
2022-12-07T03:51:08.404Z,21.83
2022-12-07T03:53:37.648Z,22.13
2022-12-07T03:56:05.322Z,21.87
2022-12-07T03:58:33.262Z,21.83
2022-12-07T04:01:00.590Z,21.00
2022-12-07T04:03:27.786Z,20.10
2022-12-07T04:05:55.146Z,24.20
2022-12-07T04:08:23.660Z,20.80
2022-12-07T04:10:50.790Z,21.93
2022-12-07T04:13:17.892Z,22.00
2022-12-07T04:15:45.052Z,22.20
2022-12-07T04:18:12.221Z,20.87
2022-12-07T04:20:39.389Z,22.87
2022-12-07T04:23:06.511Z,21.80
2022-12-07T04:25:34.983Z,22.13
2022-12-07T04:28:02.073Z,19.87
2022-12-07T04:30:29.214Z,20.60
2022-12-07T04:32:56.341Z,20.90
2022-12-07T04:35:23.449Z,20.10
2022-12-07T04:37:50.526Z,21.97
2022-12-07T04:40:17.669Z,21.50
2022-12-07T04:42:46.146Z,21.67
2022-12-07T04:45:13.250Z,21.07
2022-12-07T04:47:40.312Z,22.40
2022-12-07T04:50:07.984Z,20.00
2022-12-07T04:52:35.044Z,19.73
2022-12-07T04:55:02.123Z,20.77
2022-12-07T04:57:29.220Z,20.10
2022-12-07T04:59:57.636Z,19.20
2022-12-07T05:02:24.839Z,20.37
2022-12-07T05:04:52.018Z,19.60
2022-12-07T05:07:19.104Z,18.97
2022-12-07T05:09:46.180Z,21.60
2022-12-07T05:12:13.275Z,20.17
2022-12-07T05:14:40.351Z,20.13
2022-12-07T05:17:08.783Z,20.07
2022-12-07T05:19:35.902Z,19.50
2022-12-07T05:22:03.006Z,18.37
2022-12-07T05:24:30.106Z,17.67
2022-12-07T05:26:57.227Z,18.67
2022-12-07T05:29:24.344Z,18.40
2022-12-07T05:31:51.545Z,18.73
2022-12-07T05:34:20.121Z,18.37
2022-12-07T05:36:47.241Z,16.50
2022-12-07T05:39:14.383Z,19.80
2022-12-07T05:41:41.483Z,18.47
2022-12-07T05:44:08.577Z,17.07
2022-12-07T05:46:35.661Z,16.80
2022-12-07T05:49:02.808Z,18.07
2022-12-07T05:51:31.262Z,15.80
2022-12-07T05:53:58.399Z,17.83
2022-12-07T05:56:25.486Z,17.43
2022-12-07T05:58:52.606Z,18.40
2022-12-07T06:01:19.688Z,17.73
2022-12-07T06:03:46.822Z,16.77
2022-12-07T06:06:13.977Z,16.90
2022-12-07T06:08:42.402Z,15.37
2022-12-07T06:11:09.506Z,16.53
2022-12-07T06:13:36.648Z,16.70
2022-12-07T06:16:03.774Z,16.73
2022-12-07T06:18:30.888Z,16.37
2022-12-07T06:20:58.047Z,16.30
2022-12-07T06:23:25.135Z,15.37
2022-12-07T06:25:53.629Z,15.43
2022-12-07T06:28:20.716Z,15.50
2022-12-07T06:30:47.832Z,15.40
2022-12-07T06:33:14.933Z,15.10
2022-12-07T06:35:42.661Z,15.30
2022-12-07T06:38:09.757Z,16.13
2022-12-07T06:40:36.864Z,15.53
2022-12-07T06:43:05.341Z,16.37
2022-12-07T06:45:32.462Z,17.00
2022-12-07T06:47:59.733Z,16.07
2022-12-07T06:50:27.242Z,15.97
2022-12-07T06:52:54.354Z,16.70
2022-12-07T06:55:21.551Z,16.00
2022-12-07T06:57:48.668Z,16.77
2022-12-07T07:00:22.245Z,15.87
2022-12-07T07:02:49.756Z,17.40
2022-12-07T07:05:16.885Z,16.70
2022-12-07T07:08:05.390Z,15.70
2022-12-07T07:10:31.034Z,15.40
2022-12-07T07:12:58.153Z,14.43
2022-12-07T07:15:26.750Z,17.07
2022-12-07T07:17:53.885Z,16.00
2022-12-07T07:20:21.135Z,15.73
2022-12-07T07:22:48.223Z,16.63
2022-12-07T07:25:15.527Z,14.60
2022-12-07T07:27:42.660Z,13.67
2022-12-07T07:30:10.131Z,15.93
2022-12-07T07:32:38.599Z,15.50
2022-12-07T07:35:06.326Z,14.37
2022-12-07T07:37:33.398Z,15.37
2022-12-07T07:40:00.919Z,13.87
2022-12-07T07:42:28.214Z,14.73
2022-12-07T07:44:55.327Z,15.10
2022-12-07T07:47:22.410Z,15.30
2022-12-07T07:49:50.893Z,15.27
2022-12-07T07:52:17.954Z,13.70
2022-12-07T07:54:45.066Z,14.80
2022-12-07T07:57:12.133Z,14.90
2022-12-07T07:59:39.229Z,14.90
2022-12-07T08:02:06.324Z,14.77
2022-12-07T08:04:33.486Z,15.80
2022-12-07T08:07:02.091Z,15.13
2022-12-07T08:09:29.163Z,14.90
2022-12-07T08:11:56.274Z,16.30
2022-12-07T08:14:23.381Z,17.83
2022-12-07T08:16:50.529Z,14.60
2022-12-07T08:19:17.710Z,15.63
2022-12-07T08:21:44.831Z,14.57
2022-12-07T08:24:13.336Z,15.03
2022-12-07T08:26:40.451Z,14.70
2022-12-07T08:29:07.640Z,14.77
2022-12-07T08:31:34.869Z,14.47
2022-12-07T08:34:02.124Z,14.80
2022-12-07T08:36:29.291Z,15.10
2022-12-07T08:39:29.981Z,15.30
2022-12-07T08:41:44.867Z,13.03
2022-12-07T08:44:11.995Z,12.93
2022-12-07T08:46:41.687Z,13.57
2022-12-07T08:49:11.495Z,11.90
2022-12-07T08:51:38.771Z,11.83
2022-12-07T08:54:08.409Z,10.37
2022-12-07T08:56:36.213Z,11.37
2022-12-07T08:59:05.091Z,11.10
2022-12-07T09:01:32.283Z,10.77
2022-12-07T09:03:59.422Z,10.40
2022-12-07T09:06:26.689Z,10.13
2022-12-07T09:08:55.851Z,11.30
2022-12-07T09:11:28.384Z,10.40
2022-12-07T09:13:56.034Z,10.83
2022-12-07T09:16:24.654Z,11.20
2022-12-07T09:18:51.836Z,13.00
2022-12-07T09:21:18.965Z,12.67
2022-12-07T09:23:46.125Z,12.10
2022-12-07T09:26:13.197Z,10.90
2022-12-07T09:28:40.435Z,10.83
2022-12-07T09:31:24.753Z,11.13
2022-12-07T09:33:56.374Z,10.00
2022-12-07T09:36:23.517Z,10.00
2022-12-07T09:38:50.651Z,10.07
2022-12-07T09:41:17.782Z,10.30
2022-12-07T09:43:45.073Z,9.50
2022-12-07T09:46:14.829Z,10.10
2022-12-07T09:48:43.589Z,10.47
2022-12-07T09:51:22.454Z,9.47
2022-12-07T09:53:50.851Z,10.20
2022-12-07T09:56:19.464Z,9.80
2022-12-07T09:58:47.477Z,12.20
2022-12-07T10:01:15.947Z,11.60
2022-12-07T10:03:46.580Z,10.33
2022-12-07T10:06:15.034Z,11.13
2022-12-07T10:08:42.139Z,11.73
2022-12-07T10:11:09.218Z,11.30
2022-12-07T10:13:37.428Z,9.90
2022-12-07T10:16:07.217Z,10.13
2022-12-07T10:18:35.568Z,10.80
2022-12-07T10:21:04.498Z,10.50
2022-12-07T10:23:33.008Z,10.20
2022-12-07T10:26:00.094Z,9.13
2022-12-07T10:28:40.335Z,9.60
2022-12-07T10:31:17.137Z,9.07
2022-12-07T10:33:50.208Z,9.00
2022-12-07T10:36:19.528Z,9.10
2022-12-07T10:38:49.284Z,8.93
2022-12-07T10:41:16.780Z,10.43
2022-12-07T10:43:51.763Z,8.13
2022-12-07T10:46:42.855Z,8.30
2022-12-07T10:49:17.367Z,8.20
2022-12-07T10:51:48.519Z,9.00
2022-12-07T10:54:22.739Z,8.80
2022-12-07T10:56:57.369Z,9.47
2022-12-07T10:59:39.698Z,8.27
2022-12-07T11:02:21.976Z,7.53
2022-12-07T11:04:55.648Z,8.70
2022-12-07T11:07:29.405Z,8.80
2022-12-07T11:10:08.958Z,7.90
2022-12-07T11:12:46.182Z,8.13
2022-12-07T11:15:17.983Z,7.70
2022-12-07T11:17:49.446Z,9.43
2022-12-07T11:20:24.715Z,7.90
2022-12-07T11:22:53.990Z,8.90
2022-12-07T11:25:29.028Z,7.27
2022-12-07T11:28:04.154Z,7.37
2022-12-07T11:30:35.681Z,5.90
2022-12-07T11:33:08.663Z,6.63
2022-12-07T11:35:39.696Z,6.83
2022-12-07T11:38:11.606Z,6.40
2022-12-07T11:40:41.440Z,6.23
2022-12-07T11:43:12.884Z,8.17
2022-12-07T11:45:42.901Z,7.00
2022-12-07T11:48:14.903Z,7.07
2022-12-07T11:50:44.146Z,5.93
2022-12-07T11:53:15.744Z,6.30
2022-12-07T11:55:47.692Z,6.57
2022-12-07T11:58:38.946Z,6.90
2022-12-07T12:01:10.579Z,7.23
2022-12-07T12:03:39.994Z,7.00
2022-12-07T12:06:07.208Z,8.23
2022-12-07T12:11:31.095Z,7.70
2022-12-07T12:17:14.985Z,8.40
2022-12-07T12:19:43.194Z,8.17
2022-12-07T12:22:14.140Z,9.80
2022-12-07T12:24:42.190Z,9.63
2022-12-07T12:27:11.712Z,10.63
2022-12-07T12:29:40.088Z,9.90
2022-12-07T12:32:09.151Z,10.00
2022-12-07T12:34:45.428Z,8.63
2022-12-07T12:37:35.943Z,6.30
2022-12-07T12:40:21.509Z,8.40
2022-12-07T12:42:50.639Z,7.80
2022-12-07T12:45:22.390Z,6.87
2022-12-07T12:47:58.435Z,7.40
2022-12-07T12:50:29.819Z,7.20
2022-12-07T12:53:14.211Z,6.57
2022-12-07T12:55:56.206Z,5.73
2022-12-07T12:58:30.867Z,6.73
2022-12-07T13:01:16.969Z,6.17
2022-12-07T13:03:53.203Z,4.63
2022-12-07T13:06:21.337Z,4.47
2022-12-07T13:08:48.491Z,4.60
2022-12-07T13:11:20.288Z,4.10
2022-12-07T13:13:48.787Z,4.23
2022-12-07T13:16:38.255Z,4.30
2022-12-07T13:19:20.332Z,4.67
2022-12-07T13:21:47.499Z,4.70
2022-12-07T13:24:14.804Z,4.50
2022-12-07T13:26:43.669Z,5.10
2022-12-07T13:29:14.101Z,4.13
2022-12-07T13:31:42.136Z,3.73
2022-12-07T13:34:24.140Z,4.30
2022-12-07T13:36:51.255Z,5.50
2022-12-07T13:39:20.425Z,3.93
2022-12-07T13:41:50.889Z,5.13
2022-12-07T13:44:19.914Z,3.60
2022-12-07T13:46:51.931Z,4.10
2022-12-07T13:49:20.943Z,4.20
2022-12-07T13:51:48.256Z,4.40
2022-12-07T13:54:15.864Z,4.33
2022-12-07T13:56:43.291Z,4.57
2022-12-07T13:59:14.684Z,5.07
2022-12-07T14:01:43.282Z,4.43
2022-12-07T14:04:34.630Z,3.50
2022-12-07T14:07:02.288Z,5.63
2022-12-07T14:09:30.068Z,4.53
2022-12-07T14:11:57.863Z,4.40
2022-12-07T14:14:30.503Z,3.80
2022-12-07T14:17:04.387Z,4.30
2022-12-07T14:19:55.591Z,5.70
2022-12-07T14:22:27.109Z,4.90
2022-12-07T14:25:00.347Z,4.97
2022-12-07T14:27:32.155Z,5.67
2022-12-07T14:29:59.264Z,5.10
2022-12-07T14:32:29.023Z,4.80
2022-12-07T14:35:10.777Z,4.80
2022-12-07T14:37:38.703Z,4.90
2022-12-07T14:40:06.674Z,4.60
2022-12-07T14:42:34.634Z,5.10
2022-12-07T14:45:02.050Z,4.90
2022-12-07T14:50:18.897Z,4.43
2022-12-07T14:55:35.135Z,4.93
2022-12-07T14:58:02.254Z,4.57
2022-12-07T15:00:29.693Z,4.60
2022-12-07T15:02:58.435Z,5.40
2022-12-07T15:05:25.620Z,6.30
2022-12-07T15:07:52.811Z,5.37
2022-12-07T15:10:24.130Z,5.40
2022-12-07T15:12:51.765Z,5.50
2022-12-07T15:15:18.879Z,4.83
2022-12-07T15:17:46.001Z,5.17
2022-12-07T15:20:15.319Z,5.27
2022-12-07T15:22:42.436Z,5.67
2022-12-07T15:25:10.569Z,6.10
2022-12-07T15:27:37.635Z,6.70
2022-12-07T15:30:04.983Z,8.07
2022-12-07T15:32:32.117Z,7.97
2022-12-07T15:34:59.361Z,8.80
2022-12-07T15:37:27.801Z,8.53
2022-12-07T15:39:54.969Z,8.33
2022-12-07T15:42:22.121Z,8.37
2022-12-07T15:44:49.277Z,8.10
2022-12-07T15:47:16.399Z,7.43
2022-12-07T15:49:44.382Z,8.10
2022-12-07T15:52:11.536Z,7.97
2022-12-07T15:54:39.985Z,7.00
2022-12-07T15:57:07.071Z,6.70
2022-12-07T15:59:34.167Z,6.83
2022-12-07T16:02:01.331Z,7.00
2022-12-07T16:04:28.752Z,5.90
2022-12-07T16:06:55.825Z,5.53
2022-12-07T16:09:22.922Z,6.40
2022-12-07T16:11:51.395Z,7.30
2022-12-07T16:14:18.460Z,5.67
2022-12-07T16:16:45.564Z,6.13
2022-12-07T16:19:12.810Z,5.90
2022-12-07T16:21:40.239Z,5.83
2022-12-07T16:24:08.085Z,6.60
2022-12-07T16:26:35.361Z,7.73
2022-12-07T16:29:03.827Z,7.30
2022-12-07T16:31:30.994Z,7.00
2022-12-07T16:33:59.425Z,6.77
2022-12-07T16:36:55.175Z,8.30
2022-12-07T16:39:13.835Z,9.37
2022-12-07T16:41:40.960Z,8.90
2022-12-07T16:44:11.373Z,8.67
2022-12-07T16:46:38.539Z,10.47
2022-12-07T16:49:06.165Z,9.20
2022-12-07T16:51:33.301Z,8.43
2022-12-07T16:54:00.380Z,8.20
2022-12-07T16:56:27.503Z,10.67
2022-12-07T16:58:54.569Z,9.60
2022-12-07T17:01:23.706Z,9.63
2022-12-07T17:03:51.616Z,9.17
2022-12-07T17:06:19.980Z,10.83
2022-12-07T17:08:47.453Z,10.13
2022-12-07T17:11:15.380Z,10.57
2022-12-07T17:13:42.657Z,11.00
2022-12-07T17:16:09.810Z,11.40
2022-12-07T17:18:38.279Z,11.33
2022-12-07T17:21:06.493Z,11.30
2022-12-07T17:23:34.073Z,11.60
2022-12-07T17:26:05.448Z,11.53
2022-12-07T17:28:32.550Z,11.80
2022-12-07T17:30:59.649Z,12.43
2022-12-07T17:33:26.760Z,11.87
2022-12-07T17:35:55.207Z,13.90
2022-12-07T17:38:22.275Z,12.20
2022-12-07T17:40:49.351Z,13.67
2022-12-07T17:43:16.439Z,14.40
2022-12-07T17:45:43.592Z,17.53
2022-12-07T17:48:10.672Z,14.87
2022-12-07T17:50:39.801Z,14.63
2022-12-07T17:53:09.146Z,15.07
2022-12-07T17:56:10.541Z,15.97
2022-12-07T17:58:23.322Z,15.37
2022-12-07T18:00:50.530Z,11.60
2022-12-07T18:03:17.709Z,9.53
2022-12-07T18:05:44.840Z,10.40
2022-12-07T18:08:13.340Z,10.73
2022-12-07T18:10:40.466Z,11.47
2022-12-07T18:13:07.554Z,14.60
2022-12-07T18:15:34.649Z,17.17
2022-12-07T18:18:01.746Z,15.33
2022-12-07T18:20:28.860Z,17.23
2022-12-07T18:22:55.933Z,17.27
2022-12-07T18:25:24.375Z,16.70
2022-12-07T18:27:51.485Z,16.60
2022-12-07T18:30:18.572Z,19.73
2022-12-07T18:32:45.662Z,17.20
2022-12-07T18:35:12.763Z,17.63
2022-12-07T18:37:41.119Z,17.83
2022-12-07T18:40:08.848Z,20.07
2022-12-07T18:42:37.227Z,20.40
2022-12-07T18:45:04.970Z,18.30
2022-12-07T18:47:32.195Z,20.90
2022-12-07T18:49:59.263Z,21.77
2022-12-07T18:52:26.367Z,19.57
2022-12-07T18:54:53.498Z,21.70
2022-12-07T18:57:20.577Z,20.00
2022-12-07T18:59:49.011Z,21.33
2022-12-07T19:02:16.656Z,20.60
2022-12-07T19:04:43.899Z,21.90
2022-12-07T19:07:11.034Z,20.97
2022-12-07T19:09:38.367Z,20.07
2022-12-07T19:12:05.691Z,20.90
2022-12-07T19:14:33.478Z,20.00
2022-12-07T19:17:03.144Z,20.80
2022-12-07T19:19:31.312Z,22.17
2022-12-07T19:21:58.408Z,21.30
2022-12-07T19:24:25.552Z,21.00
2022-12-07T19:26:52.639Z,21.17
2022-12-07T19:29:19.805Z,21.57
2022-12-07T19:31:46.977Z,23.10
2022-12-07T19:34:16.720Z,20.00
2022-12-07T19:36:44.087Z,19.30
2022-12-07T19:39:14.617Z,20.70
2022-12-07T19:41:42.982Z,21.00
2022-12-07T19:44:11.344Z,22.23
2022-12-07T19:46:38.735Z,22.00
2022-12-07T19:49:05.906Z,20.60
2022-12-07T19:51:34.384Z,21.27
2022-12-07T19:54:02.203Z,22.53
2022-12-07T19:56:29.915Z,22.23
2022-12-07T19:58:59.026Z,21.33
2022-12-07T20:01:26.210Z,20.40
2022-12-07T20:03:53.336Z,21.97
2022-12-07T20:06:20.790Z,21.30
2022-12-07T20:08:49.540Z,21.43
2022-12-07T20:11:17.764Z,23.23
2022-12-07T20:13:44.862Z,23.00
2022-12-07T20:16:19.700Z,21.67
2022-12-07T20:18:51.683Z,22.00
2022-12-07T20:21:23.021Z,23.00
2022-12-07T20:23:51.476Z,22.83
2022-12-07T20:26:18.595Z,23.77
2022-12-07T20:28:45.745Z,24.20
2022-12-07T20:31:13.560Z,22.77
2022-12-07T20:33:40.840Z,21.90
2022-12-07T20:36:08.463Z,21.80
2022-12-07T20:38:35.582Z,21.93
2022-12-07T20:41:05.017Z,21.67
2022-12-07T20:43:32.135Z,23.63
2022-12-07T20:45:59.331Z,23.27
2022-12-07T20:48:26.752Z,23.40
2022-12-07T20:50:54.203Z,21.00
2022-12-07T20:53:21.285Z,23.97
2022-12-07T20:55:48.394Z,23.13
2022-12-07T20:58:16.845Z,21.43
2022-12-07T21:00:43.973Z,23.13
2022-12-07T21:03:11.183Z,23.57
2022-12-07T21:05:38.301Z,23.20
2022-12-07T21:08:05.589Z,22.40
2022-12-07T21:10:32.715Z,23.30
2022-12-07T21:12:59.861Z,24.57
2022-12-07T21:15:28.481Z,23.27
2022-12-07T21:17:55.654Z,24.30
2022-12-07T21:20:22.749Z,21.27
2022-12-07T21:22:49.841Z,23.80
2022-12-07T21:25:16.963Z,23.77
2022-12-07T21:27:44.043Z,24.80
2022-12-07T21:30:11.496Z,23.37
2022-12-07T21:32:39.958Z,23.07
2022-12-07T21:35:07.237Z,24.27
2022-12-07T21:37:34.324Z,21.47
2022-12-07T21:40:01.407Z,24.13
2022-12-07T21:42:28.575Z,25.43
2022-12-07T21:44:55.675Z,24.70
2022-12-07T21:47:22.770Z,23.03
2022-12-07T21:49:51.230Z,22.70
2022-12-07T21:52:18.324Z,23.07
2022-12-07T21:54:45.406Z,22.37
2022-12-07T21:57:12.505Z,22.73
2022-12-07T21:59:39.608Z,22.70
2022-12-07T22:02:06.774Z,21.87
2022-12-07T22:04:33.903Z,22.20
2022-12-07T22:07:02.292Z,20.43
2022-12-07T22:09:29.446Z,21.57
2022-12-07T22:11:56.527Z,21.20
2022-12-07T22:14:23.599Z,20.43
2022-12-07T22:16:50.851Z,21.50
2022-12-07T22:19:17.959Z,23.03
2022-12-07T22:21:45.067Z,22.33
2022-12-07T22:24:13.573Z,18.90
2022-12-07T22:26:41.044Z,21.40
2022-12-07T22:29:08.193Z,21.20
2022-12-07T22:31:35.398Z,23.13
2022-12-07T22:34:02.505Z,21.20
2022-12-07T22:36:29.632Z,22.00
2022-12-07T22:38:57.029Z,20.13
2022-12-07T22:41:26.502Z,21.03
2022-12-07T22:43:53.888Z,21.67
2022-12-07T22:46:21.236Z,22.47
2022-12-07T22:48:48.377Z,22.40
2022-12-07T22:51:20.210Z,23.53
2022-12-07T22:53:47.325Z,21.10
2022-12-07T22:56:14.463Z,21.77
2022-12-07T22:58:42.891Z,20.03
2022-12-07T23:01:10.189Z,22.43
2022-12-07T23:03:37.363Z,22.80
2022-12-07T23:06:06.738Z,22.40
2022-12-07T23:08:33.860Z,21.67
2022-12-07T23:11:00.944Z,22.27
2022-12-07T23:13:28.035Z,22.10
2022-12-07T23:15:56.478Z,22.23
2022-12-07T23:18:23.631Z,21.47
2022-12-07T23:20:50.670Z,19.93
2022-12-07T23:23:17.747Z,20.30
2022-12-07T23:25:44.874Z,18.90
2022-12-07T23:28:11.986Z,18.67
2022-12-07T23:30:39.084Z,22.40
2022-12-07T23:33:07.548Z,20.23
2022-12-07T23:35:34.629Z,20.33
2022-12-07T23:38:01.716Z,20.60
2022-12-07T23:40:28.858Z,20.20
2022-12-07T23:42:55.924Z,22.83
2022-12-07T23:45:23.125Z,18.63
2022-12-07T23:47:50.248Z,18.37
2022-12-07T23:50:18.774Z,18.70
2022-12-07T23:52:46.043Z,19.50
2022-12-07T23:55:13.165Z,17.77
2022-12-07T23:57:40.283Z,17.97
